Isle Of Palms, South Carolina
Current Conditions -  °F | °C
As of 5:35 PM on Monday 22 Dec 2014 (Local Time) from KLRO Reporting Station
Light Rain Light Rain  
Wind Chill: 48°   Ceiling: 500
Heat Index: 48°   Visibility: 10mi
Dew Point: 48°   Wind: 3mph
Humidity: 100%   Direction: 350°N
Pressure: 30.01"   Gusts: NA
Location:  32.79°N, 79.79°W
Report Text: KLRO 222235Z AUTO 35003KT 10SM -RA OVC005 09/09 A3001 RMK AO2
Loading
Personal Weather Stations






























Interactive Weather Map New forecast layout! Learn more

10-Day Weather Forecast

Advertisements
Track Severe Weather on mobile